createdAt,value
2019-01-05T00:01:42.900Z,5.80
2019-01-05T00:04:28.297Z,5.80
2019-01-05T00:07:15.739Z,5.80
2019-01-05T00:10:01.626Z,5.80
2019-01-05T00:12:38.700Z,5.80
2019-01-05T00:15:07.603Z,5.80
2019-01-05T00:17:53.866Z,5.80
2019-01-05T00:20:26.140Z,5.80
2019-01-05T00:23:07.766Z,5.80
2019-01-05T00:25:36.724Z,5.80
2019-01-05T00:28:22.129Z,5.80
2019-01-05T00:31:08.143Z,5.80
2019-01-05T00:33:53.107Z,5.80
2019-01-05T00:36:44.841Z,5.90
2019-01-05T00:39:29.555Z,5.90
2019-01-05T00:42:17.189Z,5.90
2019-01-05T00:44:46.871Z,5.90
2019-01-05T00:47:31.443Z,5.90
2019-01-05T00:50:09.274Z,5.90
2019-01-05T00:52:44.693Z,5.90
2019-01-05T00:55:16.893Z,5.90
2019-01-05T00:57:52.099Z,5.90
2019-01-05T01:00:33.187Z,5.80
2019-01-05T01:03:19.071Z,5.80
2019-01-05T01:05:54.120Z,5.80
2019-01-05T01:08:27.893Z,5.80
2019-01-05T01:11:13.403Z,5.80
2019-01-05T01:13:59.104Z,5.80
2019-01-05T01:16:28.123Z,5.80
2019-01-05T01:19:03.278Z,5.80
2019-01-05T01:21:32.258Z,5.70
2019-01-05T01:24:19.846Z,5.70
2019-01-05T01:26:58.226Z,5.80
2019-01-05T01:29:27.176Z,5.80
2019-01-05T01:31:59.383Z,5.80
2019-01-05T01:34:28.291Z,5.70
2019-01-05T01:37:14.657Z,5.80
2019-01-05T01:39:49.683Z,5.80
2019-01-05T01:42:32.629Z,5.80
2019-01-05T01:45:11.037Z,5.70
2019-01-05T01:47:40.782Z,5.70
2019-01-05T01:50:26.715Z,5.70
2019-01-05T01:53:00.252Z,5.70
2019-01-05T01:55:41.036Z,5.80
2019-01-05T01:58:29.009Z,5.70
2019-01-05T02:01:15.874Z,5.70
2019-01-05T02:04:01.784Z,5.80
2019-01-05T02:06:38.313Z,5.80
2019-01-05T02:09:13.597Z,5.80
2019-01-05T02:11:47.408Z,5.80
2019-01-05T02:14:25.824Z,5.80
2019-01-05T02:17:17.565Z,5.80
2019-01-05T02:20:42.143Z,5.80
2019-01-05T02:24:01.298Z,5.90
2019-01-05T02:27:14.726Z,5.80
2019-01-05T02:30:16.767Z,5.80
2019-01-05T02:33:15.823Z,5.90
2019-01-05T02:36:21.378Z,5.80
2019-01-05T02:39:47.371Z,5.80
2019-01-05T02:43:03.022Z,5.80
2019-01-05T02:46:27.880Z,5.80
2019-01-05T02:49:39.804Z,5.80
2019-01-05T02:53:03.035Z,5.80
2019-01-05T02:56:21.450Z,5.80
2019-01-05T02:59:49.492Z,5.80
2019-01-05T03:03:05.131Z,5.80
2019-01-05T03:06:02.668Z,5.80
2019-01-05T03:09:32.836Z,5.80
2019-01-05T03:12:48.166Z,5.80
2019-01-05T03:15:49.234Z,5.80
2019-01-05T03:19:20.421Z,5.80
2019-01-05T03:22:49.262Z,5.80
2019-01-05T03:25:57.914Z,5.80
2019-01-05T03:28:57.638Z,5.70
2019-01-05T03:32:03.437Z,5.80
2019-01-05T03:35:12.983Z,5.70
2019-01-05T03:38:20.341Z,5.70
2019-01-05T03:41:56.994Z,5.70
2019-01-05T03:44:47.773Z,5.70
2019-01-05T03:47:44.339Z,5.70
2019-01-05T03:50:59.757Z,5.60
2019-01-05T03:54:30.717Z,5.70
2019-01-05T03:57:53.844Z,5.70
2019-01-05T04:00:50.793Z,5.60
2019-01-05T04:04:29.201Z,5.70
2019-01-05T04:07:32.936Z,5.60
2019-01-05T04:10:38.132Z,5.60
2019-01-05T04:13:45.510Z,5.70
2019-01-05T04:17:00.961Z,5.60
2019-01-05T04:20:24.194Z,5.60
2019-01-05T04:23:33.440Z,5.60
2019-01-05T04:26:55.851Z,5.60
2019-01-05T04:30:49.288Z,5.50
2019-01-05T04:33:48.885Z,5.50
2019-01-05T04:36:59.584Z,5.50
2019-01-05T04:40:14.011Z,5.50
2019-01-05T04:43:36.423Z,5.60
2019-01-05T04:46:54.491Z,5.60
2019-01-05T04:50:18.272Z,5.60
2019-01-05T04:53:43.102Z,5.60
2019-01-05T04:56:58.970Z,5.60
2019-01-05T05:00:24.533Z,5.60
2019-01-05T05:03:53.525Z,5.60
2019-01-05T05:07:18.892Z,5.60
2019-01-05T05:10:35.061Z,5.50
2019-01-05T05:13:38.721Z,5.60
2019-01-05T05:16:40.542Z,5.60
2019-01-05T05:19:54.211Z,5.60
2019-01-05T05:23:18.826Z,5.60
2019-01-05T05:26:38.216Z,5.70
2019-01-05T05:29:42.992Z,5.60
2019-01-05T05:32:47.917Z,5.60
2019-01-05T05:36:03.414Z,5.60
2019-01-05T05:39:26.475Z,5.70
2019-01-05T05:42:54.609Z,5.70
2019-01-05T05:46:14.577Z,5.80
2019-01-05T05:50:03.330Z,5.80
2019-01-05T05:53:01.370Z,5.80
2019-01-05T05:56:37.112Z,5.80
2019-01-05T06:00:08.858Z,5.80
2019-01-05T06:03:37.996Z,5.80
2019-01-05T06:06:45.493Z,5.80
2019-01-05T06:10:11.396Z,5.80
2019-01-05T06:13:31.944Z,5.70
2019-01-05T06:16:44.294Z,5.70
2019-01-05T06:20:07.761Z,5.70
2019-01-05T06:23:32.952Z,5.70
2019-01-05T06:27:01.097Z,5.70
2019-01-05T06:30:49.452Z,5.70
2019-01-05T06:34:18.101Z,5.70
2019-01-05T06:37:30.028Z,5.60
2019-01-05T06:41:11.636Z,5.70
2019-01-05T06:44:35.405Z,5.60
2019-01-05T06:48:04.563Z,5.70
2019-01-05T06:51:46.608Z,5.70
2019-01-05T06:55:03.658Z,5.70
2019-01-05T06:58:20.848Z,5.70
2019-01-05T07:01:34.386Z,5.70
2019-01-05T07:04:47.874Z,5.80
2019-01-05T07:08:12.525Z,5.80
2019-01-05T07:11:31.188Z,5.80
2019-01-05T07:14:46.014Z,5.80
2019-01-05T07:18:14.056Z,5.90
2019-01-05T07:21:42.547Z,5.80
2019-01-05T07:24:53.495Z,5.90
2019-01-05T07:27:59.107Z,6.00
2019-01-05T07:31:16.448Z,6.20
2019-01-05T07:34:41.438Z,6.20
2019-01-05T07:37:42.277Z,6.30
2019-01-05T07:40:59.886Z,6.30
2019-01-05T07:44:12.426Z,6.30
2019-01-05T07:47:27.149Z,6.40
2019-01-05T07:50:26.101Z,6.50
2019-01-05T07:53:45.463Z,6.50
2019-01-05T07:56:53.569Z,6.60
2019-01-05T08:00:02.677Z,6.60
2019-01-05T08:03:17.386Z,6.60
2019-01-05T08:06:29.274Z,6.70
2019-01-05T08:09:55.722Z,6.80
2019-01-05T08:13:07.707Z,6.90
2019-01-05T08:16:23.569Z,6.90
2019-01-05T08:19:49.918Z,6.90
2019-01-05T08:23:11.610Z,7.00
2019-01-05T08:26:32.172Z,7.00
2019-01-05T08:29:22.817Z,7.00
2019-01-05T08:32:29.018Z,7.00
2019-01-05T08:35:17.248Z,7.00
2019-01-05T08:38:43.663Z,7.00
2019-01-05T08:42:07.473Z,7.00
2019-01-05T08:45:42.453Z,7.00
2019-01-05T08:49:13.151Z,7.10
2019-01-05T08:52:20.557Z,7.10
2019-01-05T08:55:45.149Z,7.20
2019-01-05T08:59:13.174Z,7.20
2019-01-05T09:02:56.645Z,7.30
2019-01-05T09:06:16.083Z,7.30
2019-01-05T09:09:39.881Z,7.40
2019-01-05T09:13:04.015Z,7.40
2019-01-05T09:16:19.932Z,7.40
2019-01-05T09:19:44.372Z,7.40
2019-01-05T09:23:11.699Z,7.40
2019-01-05T09:26:25.933Z,7.40
2019-01-05T09:29:44.742Z,7.40
2019-01-05T09:33:05.885Z,7.40
2019-01-05T09:36:33.306Z,7.50
2019-01-05T09:39:40.809Z,7.50
2019-01-05T09:43:05.504Z,7.50
2019-01-05T09:46:41.849Z,7.60
2019-01-05T09:50:12.166Z,7.60
2019-01-05T09:53:30.373Z,7.60
2019-01-05T09:56:34.967Z,7.60
2019-01-05T09:59:50.505Z,7.60
2019-01-05T10:03:32.428Z,7.60
2019-01-05T10:06:54.080Z,7.70
2019-01-05T10:10:02.862Z,7.70
2019-01-05T10:13:16.492Z,7.70
2019-01-05T10:16:30.485Z,7.70
2019-01-05T10:20:22.064Z,7.80
2019-01-05T10:23:37.024Z,7.80
2019-01-05T10:26:43.372Z,7.80
2019-01-05T10:30:08.831Z,7.80
2019-01-05T10:33:28.922Z,7.90
2019-01-05T10:36:47.031Z,7.90
2019-01-05T10:40:18.801Z,8.00
2019-01-05T10:43:42.255Z,8.00
2019-01-05T10:46:59.806Z,8.00
2019-01-05T10:50:28.025Z,8.00
2019-01-05T10:53:34.466Z,8.00
2019-01-05T10:57:05.766Z,8.10
2019-01-05T11:00:24.162Z,8.20
2019-01-05T11:03:46.593Z,8.20
2019-01-05T11:06:53.507Z,8.20
2019-01-05T11:09:57.545Z,8.20
2019-01-05T11:12:59.951Z,8.20
2019-01-05T11:16:22.133Z,8.20
2019-01-05T11:19:32.877Z,8.30
2019-01-05T11:22:47.788Z,8.30
2019-01-05T11:26:05.489Z,8.40
2019-01-05T11:29:24.232Z,8.40
2019-01-05T11:32:23.680Z,8.40
2019-01-05T11:35:22.672Z,8.40
2019-01-05T11:38:48.279Z,8.30
2019-01-05T11:42:28.044Z,8.30
2019-01-05T11:45:50.468Z,8.30
2019-01-05T11:49:10.625Z,8.40
2019-01-05T11:52:34.666Z,8.40
2019-01-05T11:56:11.549Z,8.30
2019-01-05T11:59:16.046Z,8.40
2019-01-05T12:02:19.600Z,8.30
2019-01-05T12:05:46.145Z,8.30
2019-01-05T12:09:37.783Z,8.30
2019-01-05T12:12:33.960Z,8.30
2019-01-05T12:16:12.990Z,8.30
2019-01-05T12:19:40.819Z,8.30
2019-01-05T12:22:49.550Z,8.40
2019-01-05T12:26:20.768Z,8.50
2019-01-05T12:29:30.269Z,8.50
2019-01-05T12:32:58.099Z,8.50
2019-01-05T12:36:19.699Z,8.50
2019-01-05T12:39:41.505Z,8.50
2019-01-05T12:43:00.250Z,8.50
2019-01-05T12:46:18.994Z,8.50
2019-01-05T12:49:17.187Z,8.50
2019-01-05T12:52:52.340Z,8.60
2019-01-05T12:56:24.348Z,8.60
2019-01-05T12:59:46.494Z,8.60
2019-01-05T13:02:58.267Z,8.60
2019-01-05T13:06:34.009Z,8.60
2019-01-05T13:10:19.448Z,8.60
2019-01-05T13:13:45.613Z,8.60
2019-01-05T13:17:14.861Z,8.60
2019-01-05T13:20:44.610Z,8.60
2019-01-05T13:24:01.300Z,8.60
2019-01-05T13:27:32.187Z,8.70
2019-01-05T13:30:51.810Z,8.90
2019-01-05T13:34:24.267Z,8.80
2019-01-05T13:37:26.273Z,8.80
2019-01-05T13:40:57.600Z,8.80
2019-01-05T13:44:17.331Z,8.70
2019-01-05T13:47:46.775Z,8.70
2019-01-05T13:51:04.310Z,8.70
2019-01-05T13:53:55.261Z,8.70
2019-01-05T13:56:35.532Z,8.70
2019-01-05T13:59:22.537Z,8.80
2019-01-05T14:02:08.147Z,8.80
2019-01-05T14:04:49.246Z,8.70
2019-01-05T14:07:18.436Z,8.70
2019-01-05T14:09:59.436Z,8.60
2019-01-05T14:12:34.147Z,8.70
2019-01-05T14:15:20.007Z,8.70
2019-01-05T14:17:49.121Z,8.70
2019-01-05T14:20:30.358Z,8.70
2019-01-05T14:23:02.101Z,8.70
2019-01-05T14:25:31.011Z,8.70
2019-01-05T14:28:08.900Z,8.60
2019-01-05T14:30:54.494Z,8.60
2019-01-05T14:33:27.581Z,8.60
2019-01-05T14:36:14.045Z,8.60
2019-01-05T14:38:43.075Z,8.60
2019-01-05T14:41:11.966Z,8.60
2019-01-05T14:43:43.850Z,8.60
2019-01-05T14:46:29.729Z,8.60
2019-01-05T14:49:01.281Z,8.50
2019-01-05T14:51:35.983Z,8.50
2019-01-05T14:54:14.054Z,8.50
2019-01-05T14:56:54.850Z,8.50
2019-01-05T14:59:23.771Z,8.50
2019-01-05T15:02:09.450Z,8.50
2019-01-05T15:04:56.782Z,8.40
2019-01-05T15:07:38.009Z,8.40
2019-01-05T15:10:12.637Z,8.40
2019-01-05T15:12:41.479Z,8.40
2019-01-05T15:15:13.401Z,8.40
2019-01-05T15:17:42.237Z,8.40
2019-01-05T15:20:23.513Z,8.40
2019-01-05T15:22:55.221Z,8.40
2019-01-05T15:25:40.969Z,8.40
2019-01-05T15:28:09.948Z,8.40
2019-01-05T15:30:55.630Z,8.30
2019-01-05T15:33:27.566Z,8.30
2019-01-05T15:35:59.548Z,8.30
2019-01-05T15:38:39.884Z,8.30
2019-01-05T15:41:08.793Z,8.30
2019-01-05T15:43:54.762Z,8.30
2019-01-05T15:46:42.249Z,8.30
2019-01-05T15:49:23.390Z,8.30
2019-01-05T15:52:10.683Z,8.30
2019-01-05T15:54:49.060Z,8.30
2019-01-05T15:57:30.029Z,8.40
2019-01-05T15:59:58.931Z,8.30
2019-01-05T16:02:46.007Z,8.30
2019-01-05T16:05:20.992Z,8.30
2019-01-05T16:08:02.285Z,8.30
2019-01-05T16:10:39.963Z,8.30
2019-01-05T16:13:21.849Z,8.30
2019-01-05T16:15:59.908Z,8.30
2019-01-05T16:18:32.651Z,8.20
2019-01-05T16:21:18.419Z,8.20
2019-01-05T16:23:59.633Z,8.20
2019-01-05T16:26:40.598Z,8.20
2019-01-05T16:29:18.327Z,8.20
2019-01-05T16:31:47.266Z,8.20
2019-01-05T16:34:28.452Z,8.30
2019-01-05T16:36:57.348Z,8.30
2019-01-05T16:39:38.584Z,8.30
2019-01-05T16:42:11.370Z,8.30
2019-01-05T16:44:58.712Z,8.30
2019-01-05T16:47:30.697Z,8.20
2019-01-05T16:49:59.554Z,8.20
2019-01-05T16:52:45.455Z,8.20
2019-01-05T16:55:29.697Z,8.30
2019-01-05T16:57:58.701Z,8.30
2019-01-05T17:00:42.672Z,8.30
2019-01-05T17:03:20.470Z,8.30
2019-01-05T17:06:05.997Z,8.30
2019-01-05T17:08:43.738Z,8.30
2019-01-05T17:11:18.930Z,8.20
2019-01-05T17:14:00.275Z,8.20
2019-01-05T17:16:29.196Z,8.20
2019-01-05T17:18:58.215Z,8.20
2019-01-05T17:21:30.142Z,8.10
2019-01-05T17:24:05.383Z,8.10
2019-01-05T17:26:50.726Z,8.10
2019-01-05T17:29:22.781Z,8.20
2019-01-05T17:31:51.684Z,8.10
2019-01-05T17:34:20.643Z,8.10
2019-01-05T17:37:06.604Z,8.10
2019-01-05T17:39:54.040Z,8.20
2019-01-05T17:42:26.196Z,8.20
2019-01-05T17:45:12.202Z,8.20
2019-01-05T17:47:47.548Z,8.20
2019-01-05T17:50:33.209Z,8.20
2019-01-05T17:53:14.029Z,8.20
2019-01-05T17:55:49.234Z,8.20
2019-01-05T17:58:21.212Z,8.20
2019-01-05T18:01:06.749Z,8.20
2019-01-05T18:03:35.706Z,8.20
2019-01-05T18:06:21.458Z,8.20
2019-01-05T18:08:56.516Z,8.20
2019-01-05T18:11:42.630Z,8.20
2019-01-05T18:14:14.621Z,8.20
2019-01-05T18:17:00.309Z,8.20
2019-01-05T18:19:34.958Z,8.20
2019-01-05T18:22:13.085Z,8.20
2019-01-05T18:24:59.144Z,8.20
2019-01-05T18:27:28.055Z,8.20
2019-01-05T18:29:59.789Z,8.20
2019-01-05T18:32:45.859Z,8.20
2019-01-05T18:35:20.942Z,8.30
2019-01-05T18:38:06.564Z,8.20
2019-01-05T18:40:38.130Z,8.20
2019-01-05T18:43:16.417Z,8.10
2019-01-05T18:45:45.368Z,8.10
2019-01-05T18:48:14.270Z,8.10
2019-01-05T18:50:58.509Z,8.20
2019-01-05T18:53:27.469Z,8.20
2019-01-05T18:56:11.489Z,8.20
2019-01-05T18:58:43.143Z,8.20
2019-01-05T19:01:13.150Z,8.20
2019-01-05T19:03:45.346Z,8.20
2019-01-05T19:06:17.092Z,8.20
2019-01-05T19:08:46.035Z,8.20
2019-01-05T19:11:31.861Z,8.10
2019-01-05T19:14:00.747Z,8.10
2019-01-05T19:16:34.913Z,8.10
2019-01-05T19:19:04.049Z,8.10
2019-01-05T19:21:33.195Z,8.20
2019-01-05T19:24:08.483Z,8.10
2019-01-05T19:26:46.424Z,8.10
2019-01-05T19:29:33.764Z,8.00
2019-01-05T19:32:05.683Z,8.10
2019-01-05T19:34:51.517Z,8.00
2019-01-05T19:37:37.689Z,8.10
2019-01-05T19:40:19.863Z,8.00
2019-01-05T19:42:50.637Z,8.00
2019-01-05T19:45:37.305Z,8.00
2019-01-05T19:48:09.095Z,7.90
2019-01-05T19:50:54.965Z,8.00
2019-01-05T19:53:33.115Z,8.00
2019-01-05T19:56:08.433Z,8.00
2019-01-05T19:58:54.643Z,8.00
2019-01-05T20:01:23.700Z,8.00
2019-01-05T20:04:09.810Z,8.00
2019-01-05T20:06:55.183Z,8.00
2019-01-05T20:09:26.623Z,8.00
2019-01-05T20:12:11.065Z,7.90
2019-01-05T20:14:48.674Z,7.90
2019-01-05T20:17:34.452Z,7.90
2019-01-05T20:20:12.662Z,7.90
2019-01-05T20:22:41.955Z,7.90
2019-01-05T20:25:28.837Z,7.90
2019-01-05T20:28:06.837Z,7.90
2019-01-05T20:30:35.813Z,7.80
2019-01-05T20:33:22.768Z,7.80
2019-01-05T20:35:54.892Z,7.80
2019-01-05T20:38:29.809Z,7.80
2019-01-05T20:41:07.866Z,7.80
2019-01-05T20:43:36.882Z,7.80
2019-01-05T20:46:22.885Z,7.80
2019-01-05T20:48:51.930Z,7.80
2019-01-05T20:51:23.958Z,7.80
2019-01-05T20:54:09.889Z,7.80
2019-01-05T20:56:44.972Z,7.80
2019-01-05T20:59:23.086Z,7.80
2019-01-05T21:01:52.160Z,7.90
2019-01-05T21:04:36.337Z,7.90
2019-01-05T21:07:08.134Z,7.90
2019-01-05T21:09:53.337Z,7.80
2019-01-05T21:12:34.282Z,7.80
2019-01-05T21:15:06.059Z,7.90
2019-01-05T21:17:53.470Z,7.90
2019-01-05T21:20:25.146Z,7.90
2019-01-05T21:22:57.162Z,7.90
2019-01-05T21:25:26.089Z,7.90
2019-01-05T21:28:13.653Z,7.80
2019-01-05T21:30:42.587Z,7.80
2019-01-05T21:33:28.300Z,7.90
2019-01-05T21:36:14.156Z,7.90
2019-01-05T21:39:02.769Z,7.90
2019-01-05T21:41:40.682Z,7.90
2019-01-05T21:44:18.754Z,7.90
2019-01-05T21:46:56.550Z,7.90
2019-01-05T21:49:42.283Z,8.00
2019-01-05T21:52:23.513Z,7.90
2019-01-05T21:55:09.253Z,7.90
2019-01-05T21:57:47.529Z,7.90
2019-01-05T22:00:19.576Z,8.00
2019-01-05T22:02:49.957Z,7.90
2019-01-05T22:05:35.498Z,7.90
2019-01-05T22:08:07.569Z,7.90
2019-01-05T22:10:42.489Z,7.90
2019-01-05T22:13:28.317Z,7.90
2019-01-05T22:15:59.780Z,7.90
2019-01-05T22:18:30.285Z,7.90
2019-01-05T22:21:17.417Z,7.90
2019-01-05T22:23:46.567Z,7.80
2019-01-05T22:26:21.302Z,7.90
2019-01-05T22:28:59.295Z,7.90
2019-01-05T22:31:28.271Z,7.90
2019-01-05T22:33:59.971Z,7.80
2019-01-05T22:36:44.430Z,7.80
2019-01-05T22:39:13.361Z,7.80
2019-01-05T22:42:03.593Z,7.80
2019-01-05T22:44:32.524Z,7.80
2019-01-05T22:47:11.008Z,7.80
2019-01-05T22:49:42.852Z,7.80
2019-01-05T22:52:24.122Z,7.80
2019-01-05T22:54:53.256Z,7.80
2019-01-05T22:57:24.905Z,7.80
2019-01-05T23:00:09.252Z,7.80
2019-01-05T23:02:38.250Z,7.80
2019-01-05T23:05:07.286Z,7.80
2019-01-05T23:07:39.046Z,7.80
2019-01-05T23:10:10.103Z,7.80
2019-01-05T23:12:51.401Z,7.80
2019-01-05T23:15:22.993Z,7.70
2019-01-05T23:17:54.811Z,7.80
2019-01-05T23:20:23.722Z,7.70
2019-01-05T23:23:10.215Z,7.70
2019-01-05T23:25:39.122Z,7.70
2019-01-05T23:28:24.807Z,7.70
2019-01-05T23:31:03.243Z,7.70
2019-01-05T23:33:39.986Z,7.70
2019-01-05T23:36:11.998Z,7.70
2019-01-05T23:38:49.687Z,7.70
2019-01-05T23:41:12.650Z,7.70
2019-01-05T23:43:56.773Z,7.70
2019-01-05T23:46:42.334Z,7.70
2019-01-05T23:49:11.237Z,7.70
2019-01-05T23:51:40.114Z,7.60
2019-01-05T23:54:21.192Z,7.70
2019-01-05T23:57:08.581Z,7.70
2019-01-05T23:59:55.841Z,7.60
